createdAt,value
2018-10-21T00:00:56.101Z,0.00
2018-10-21T00:01:56.153Z,0.00
2018-10-21T00:02:56.257Z,0.00
2018-10-21T00:03:56.265Z,0.00
2018-10-21T00:04:56.320Z,0.00
2018-10-21T00:05:56.377Z,0.00
2018-10-21T00:06:56.433Z,0.00
2018-10-21T00:07:56.491Z,0.00
2018-10-21T00:08:56.560Z,0.00
2018-10-21T00:09:56.603Z,0.00
2018-10-21T00:10:56.659Z,0.00
2018-10-21T00:11:56.715Z,0.00
2018-10-21T00:12:56.771Z,0.00
2018-10-21T00:13:56.827Z,0.00
2018-10-21T00:14:56.906Z,0.00
2018-10-21T00:15:56.939Z,0.00
2018-10-21T00:16:56.996Z,0.00
2018-10-21T00:17:57.051Z,0.00
2018-10-21T00:18:57.111Z,0.00
2018-10-21T00:19:57.163Z,0.00
2018-10-21T00:20:57.264Z,0.00
2018-10-21T00:21:57.276Z,0.00
2018-10-21T00:22:57.332Z,0.00
2018-10-21T00:23:57.389Z,0.00
2018-10-21T00:24:57.444Z,0.00
2018-10-21T00:25:57.500Z,0.00
2018-10-21T00:26:57.593Z,0.00
2018-10-21T00:27:57.612Z,0.00
2018-10-21T00:28:57.668Z,0.00
2018-10-21T00:29:57.726Z,0.00
2018-10-21T00:30:57.782Z,0.00
2018-10-21T00:31:57.835Z,0.00
2018-10-21T00:32:57.899Z,0.00
2018-10-21T00:33:57.948Z,0.00
2018-10-21T00:34:58.006Z,0.00
2018-10-21T00:35:58.061Z,0.00
2018-10-21T00:36:58.121Z,0.00
2018-10-21T00:37:58.172Z,0.00
2018-10-21T00:38:58.317Z,0.00
2018-10-21T00:39:58.290Z,0.00
2018-10-21T00:40:58.341Z,0.00
2018-10-21T00:41:58.399Z,0.00
2018-10-21T00:42:58.453Z,0.00
2018-10-21T00:43:58.516Z,0.00
2018-10-21T00:44:58.570Z,0.00
2018-10-21T00:45:58.620Z,0.00
2018-10-21T00:46:58.677Z,0.00
2018-10-21T00:47:58.733Z,0.00
2018-10-21T00:48:58.790Z,0.00
2018-10-21T00:49:58.845Z,0.00
2018-10-21T00:50:58.944Z,0.00
2018-10-21T00:51:58.958Z,0.00
2018-10-21T00:52:59.015Z,0.00
2018-10-21T00:53:59.071Z,0.00
2018-10-21T00:54:59.154Z,0.00
2018-10-21T00:55:59.182Z,0.00
2018-10-21T00:56:59.242Z,0.00
2018-10-21T00:57:59.292Z,0.00
2018-10-21T00:58:59.349Z,0.00
2018-10-21T00:59:59.404Z,0.00
2018-10-21T01:00:59.461Z,0.00
2018-10-21T01:01:59.517Z,0.00
2018-10-21T01:02:59.590Z,0.00
2018-10-21T01:03:59.683Z,0.00
2018-10-21T01:04:59.689Z,0.00
2018-10-21T01:05:59.741Z,0.00
2018-10-21T01:06:59.796Z,0.00
2018-10-21T01:07:59.853Z,0.00
2018-10-21T01:08:59.934Z,0.00
2018-10-21T01:09:59.964Z,0.00
2018-10-21T01:11:00.023Z,0.00
2018-10-21T01:12:00.078Z,0.00
2018-10-21T01:13:00.133Z,0.00
2018-10-21T01:14:00.188Z,0.00
2018-10-21T01:15:00.287Z,0.00
2018-10-21T01:16:00.301Z,0.00
2018-10-21T01:17:00.361Z,0.00
2018-10-21T01:18:00.412Z,0.00
2018-10-21T01:19:00.469Z,0.00
2018-10-21T01:20:00.525Z,0.00
2018-10-21T01:21:00.612Z,0.00
2018-10-21T01:22:00.637Z,0.00
2018-10-21T01:23:00.695Z,0.00
2018-10-21T01:24:00.748Z,0.00
2018-10-21T01:25:00.805Z,0.00
2018-10-21T01:26:00.860Z,0.00
2018-10-21T01:27:00.976Z,0.00
2018-10-21T01:28:00.973Z,0.00
2018-10-21T01:29:01.033Z,0.00
2018-10-21T01:30:01.085Z,0.00
2018-10-21T01:31:01.140Z,0.00
2018-10-21T01:32:01.197Z,0.00
2018-10-21T01:33:01.258Z,0.00
2018-10-21T01:34:01.308Z,0.00
2018-10-21T01:35:01.364Z,0.00
2018-10-21T01:36:01.421Z,0.00
2018-10-21T01:37:01.553Z,0.00
2018-10-21T01:38:01.542Z,0.00
2018-10-21T01:39:01.651Z,0.00
2018-10-21T01:40:01.645Z,0.00
2018-10-21T01:41:01.702Z,0.00
2018-10-21T01:42:01.756Z,0.00
2018-10-21T01:43:01.812Z,0.00
2018-10-21T01:44:01.868Z,0.00
2018-10-21T01:45:02.000Z,0.00
2018-10-21T01:46:01.985Z,0.00
2018-10-21T01:47:02.036Z,0.00
2018-10-21T01:48:02.094Z,0.00
2018-10-21T01:49:02.148Z,0.00
2018-10-21T01:50:02.203Z,0.00
2018-10-21T01:51:02.308Z,0.00
2018-10-21T01:52:02.316Z,0.00
2018-10-21T01:53:02.377Z,0.00
2018-10-21T01:54:02.427Z,0.00
2018-10-21T01:55:02.485Z,0.00
2018-10-21T01:56:02.554Z,0.00
2018-10-21T01:57:02.615Z,0.00
2018-10-21T01:58:02.651Z,0.00
2018-10-21T01:59:02.711Z,0.00
2018-10-21T02:00:02.763Z,0.00
2018-10-21T02:01:02.827Z,0.00
2018-10-21T02:02:02.875Z,0.00
2018-10-21T02:03:02.976Z,0.00
2018-10-21T02:04:02.987Z,0.00
2018-10-21T02:05:03.045Z,0.00
2018-10-21T02:06:03.099Z,0.00
2018-10-21T02:07:03.156Z,0.00
2018-10-21T02:08:03.211Z,0.00
2018-10-21T02:09:03.303Z,0.00
2018-10-21T02:10:03.324Z,0.00
2018-10-21T02:11:03.381Z,0.00
2018-10-21T02:12:03.436Z,0.00
2018-10-21T02:13:03.500Z,0.00
2018-10-21T02:14:03.582Z,0.00
2018-10-21T02:15:03.613Z,0.00
2018-10-21T02:16:03.660Z,0.00
2018-10-21T02:17:03.716Z,0.00
2018-10-21T02:18:03.779Z,0.00
2018-10-21T02:19:03.829Z,0.00
2018-10-21T02:20:03.885Z,0.00
2018-10-21T02:21:03.946Z,0.00
2018-10-21T02:22:03.995Z,0.00
2018-10-21T02:23:04.052Z,0.00
2018-10-21T02:24:04.108Z,0.00
2018-10-21T02:25:04.165Z,0.00
2018-10-21T02:26:04.237Z,0.00
2018-10-21T02:27:04.281Z,0.00
2018-10-21T02:28:04.345Z,0.00
2018-10-21T02:29:04.389Z,0.00
2018-10-21T02:30:04.444Z,0.00
2018-10-21T02:31:04.501Z,0.00
2018-10-21T02:32:04.561Z,0.00
2018-10-21T02:33:04.724Z,0.00
2018-10-21T02:34:04.668Z,0.00
2018-10-21T02:35:04.725Z,0.00
2018-10-21T02:36:04.781Z,0.00
2018-10-21T02:37:04.836Z,0.00
2018-10-21T02:38:04.895Z,0.00
2018-10-21T02:39:05.003Z,0.00
2018-10-21T02:40:05.005Z,0.00
2018-10-21T02:41:05.065Z,0.00
2018-10-21T02:42:05.118Z,0.00
2018-10-21T02:43:05.173Z,0.00
2018-10-21T02:44:05.233Z,0.00
2018-10-21T02:45:05.329Z,0.00
2018-10-21T02:46:05.341Z,0.00
2018-10-21T02:47:05.399Z,0.00
2018-10-21T02:48:05.455Z,0.00
2018-10-21T02:49:05.510Z,0.00
2018-10-21T02:50:05.566Z,0.00
2018-10-21T02:51:05.674Z,0.00
2018-10-21T02:52:05.678Z,0.00
2018-10-21T02:53:05.734Z,0.00
2018-10-21T02:54:05.790Z,0.00
2018-10-21T02:55:05.847Z,0.00
2018-10-21T02:56:05.903Z,0.00
2018-10-21T02:57:05.983Z,0.00
2018-10-21T02:58:06.018Z,0.00
2018-10-21T02:59:06.072Z,0.00
2018-10-21T03:00:06.127Z,0.00
2018-10-21T03:01:06.183Z,0.00
2018-10-21T03:02:06.240Z,0.00
2018-10-21T03:03:06.305Z,0.00
2018-10-21T03:04:06.351Z,0.00
2018-10-21T03:05:06.409Z,0.00
2018-10-21T03:06:06.463Z,0.00
2018-10-21T03:07:06.517Z,0.00
2018-10-21T03:08:06.575Z,0.00
2018-10-21T03:09:06.662Z,0.00
2018-10-21T03:10:06.688Z,0.00
2018-10-21T03:11:06.744Z,0.00
2018-10-21T03:12:06.800Z,0.00
2018-10-21T03:13:06.857Z,0.00
2018-10-21T03:14:06.912Z,0.00
2018-10-21T03:15:06.995Z,0.00
2018-10-21T03:16:07.037Z,0.00
2018-10-21T03:17:07.080Z,0.00
2018-10-21T03:18:07.170Z,0.00
2018-10-21T03:19:07.192Z,0.00
2018-10-21T03:20:07.249Z,0.00
2018-10-21T03:21:07.475Z,0.00
2018-10-21T03:22:07.360Z,0.00
2018-10-21T03:23:07.422Z,0.00
2018-10-21T03:24:07.473Z,0.00
2018-10-21T03:25:07.529Z,0.00
2018-10-21T03:26:07.584Z,0.00
2018-10-21T03:27:07.719Z,0.00
2018-10-21T03:28:07.696Z,0.00
2018-10-21T03:29:07.754Z,0.00
2018-10-21T03:30:07.810Z,0.00
2018-10-21T03:31:07.867Z,0.00
2018-10-21T03:32:07.922Z,0.00
2018-10-21T03:33:08.099Z,0.00
2018-10-21T03:34:08.215Z,0.00
2018-10-21T03:35:08.090Z,0.00
2018-10-21T03:36:08.146Z,0.00
2018-10-21T03:37:08.201Z,0.00
2018-10-21T03:38:08.260Z,0.00
2018-10-21T03:39:08.312Z,0.00
2018-10-21T03:40:08.435Z,0.00
2018-10-21T03:41:08.424Z,0.00
2018-10-21T03:42:08.483Z,0.00
2018-10-21T03:43:08.536Z,0.00
2018-10-21T03:44:08.592Z,0.00
2018-10-21T03:45:08.647Z,0.00
2018-10-21T03:46:08.735Z,0.00
2018-10-21T03:47:08.763Z,0.00
2018-10-21T03:48:08.818Z,0.00
2018-10-21T03:49:08.871Z,0.00
2018-10-21T03:50:08.926Z,0.00
2018-10-21T03:51:08.982Z,0.00
2018-10-21T03:52:09.077Z,0.00
2018-10-21T03:53:09.104Z,0.00
2018-10-21T03:54:09.150Z,0.00
2018-10-21T03:55:09.207Z,0.00
2018-10-21T03:56:09.261Z,0.00
2018-10-21T03:57:09.317Z,0.00
2018-10-21T03:58:09.441Z,0.00
2018-10-21T03:59:09.429Z,0.00
2018-10-21T04:00:09.483Z,0.00
2018-10-21T04:01:09.553Z,0.00
2018-10-21T04:02:09.595Z,0.00
2018-10-21T04:03:09.651Z,0.00
2018-10-21T04:04:09.761Z,0.00
2018-10-21T04:05:09.763Z,0.00
2018-10-21T04:06:09.821Z,0.00
2018-10-21T04:07:09.875Z,0.00
2018-10-21T04:08:09.929Z,0.00
2018-10-21T04:09:09.988Z,0.00
2018-10-21T04:10:10.114Z,0.00
2018-10-21T04:11:10.097Z,0.00
2018-10-21T04:12:10.152Z,0.00
2018-10-21T04:13:10.208Z,0.00
2018-10-21T04:14:10.262Z,0.00
2018-10-21T04:15:10.326Z,0.00
2018-10-21T04:16:10.451Z,0.00
2018-10-21T04:17:10.430Z,0.00
2018-10-21T04:18:10.487Z,0.00
2018-10-21T04:19:10.542Z,0.00
2018-10-21T04:20:10.596Z,0.00
2018-10-21T04:21:10.653Z,0.00
2018-10-21T04:22:10.829Z,0.00
2018-10-21T04:23:10.763Z,0.00
2018-10-21T04:24:10.819Z,0.00
2018-10-21T04:25:10.875Z,0.00
2018-10-21T04:26:10.931Z,0.00
2018-10-21T04:27:10.986Z,0.00
2018-10-21T04:28:11.071Z,0.00
2018-10-21T04:29:11.098Z,0.00
2018-10-21T04:30:11.157Z,0.00
2018-10-21T04:31:11.209Z,0.00
2018-10-21T04:32:11.264Z,0.00
2018-10-21T04:33:11.320Z,0.00
2018-10-21T04:34:11.478Z,0.00
2018-10-21T04:35:11.432Z,0.00
2018-10-21T04:36:11.488Z,0.00
2018-10-21T04:37:11.542Z,0.00
2018-10-21T04:38:11.600Z,0.00
2018-10-21T04:39:11.657Z,0.00
2018-10-21T04:40:11.764Z,0.00
2018-10-21T04:41:11.766Z,0.00
2018-10-21T04:42:11.825Z,0.00
2018-10-21T04:43:11.879Z,0.00
2018-10-21T04:44:11.933Z,0.00
2018-10-21T04:45:11.989Z,0.00
2018-10-21T04:46:12.129Z,0.00
2018-10-21T04:47:12.212Z,0.00
2018-10-21T04:48:12.157Z,0.00
2018-10-21T04:49:12.212Z,0.00
2018-10-21T04:50:12.267Z,0.00
2018-10-21T04:51:12.323Z,0.00
2018-10-21T04:52:12.460Z,0.00
2018-10-21T04:53:12.437Z,0.00
2018-10-21T04:54:12.490Z,0.00
2018-10-21T04:55:12.551Z,0.00
2018-10-21T04:56:12.606Z,0.00
2018-10-21T04:57:12.659Z,0.00
2018-10-21T04:58:12.799Z,0.00
2018-10-21T04:59:12.770Z,0.00
2018-10-21T05:00:12.825Z,0.00
2018-10-21T05:01:12.884Z,0.00
2018-10-21T05:02:12.936Z,0.00
2018-10-21T05:03:12.997Z,0.00
2018-10-21T05:04:13.125Z,0.00
2018-10-21T05:05:13.105Z,0.00
2018-10-21T05:06:13.159Z,0.00
2018-10-21T05:07:13.216Z,0.00
2018-10-21T05:08:13.272Z,0.00
2018-10-21T05:09:13.328Z,0.00
2018-10-21T05:10:13.531Z,0.00
2018-10-21T05:11:13.438Z,0.00
2018-10-21T05:12:13.494Z,0.00
2018-10-21T05:13:13.551Z,0.00
2018-10-21T05:14:13.604Z,0.00
2018-10-21T05:15:13.720Z,0.00
2018-10-21T05:16:13.758Z,0.00
2018-10-21T05:17:13.780Z,0.00
2018-10-21T05:18:13.826Z,0.00
2018-10-21T05:19:13.883Z,0.00
2018-10-21T05:20:13.938Z,0.00
2018-10-21T05:21:13.995Z,0.00
2018-10-21T05:22:14.252Z,0.00
2018-10-21T05:23:14.105Z,0.00
2018-10-21T05:24:14.161Z,0.00
2018-10-21T05:25:14.216Z,0.00
2018-10-21T05:26:14.270Z,0.00
2018-10-21T05:27:14.327Z,0.00
2018-10-21T05:28:14.457Z,0.00
2018-10-21T05:29:14.438Z,0.00
2018-10-21T05:30:14.495Z,0.00
2018-10-21T05:31:14.822Z,0.00
2018-10-21T05:32:40.279Z,4.00
2018-10-21T05:33:14.659Z,4.00
2018-10-21T05:34:14.771Z,0.00
2018-10-21T05:35:14.770Z,4.00
2018-10-21T05:36:14.825Z,4.00
2018-10-21T05:37:14.881Z,4.00
2018-10-21T05:38:14.938Z,8.00
2018-10-21T05:39:14.991Z,8.00
2018-10-21T05:40:15.105Z,8.00
2018-10-21T05:41:15.118Z,8.00
2018-10-21T05:42:15.157Z,8.00
2018-10-21T05:43:15.213Z,8.00
2018-10-21T05:44:15.268Z,12.00
2018-10-21T05:45:15.324Z,16.00
2018-10-21T05:46:15.433Z,20.00
2018-10-21T05:47:15.549Z,24.00
2018-10-21T05:48:15.489Z,28.00
2018-10-21T05:49:15.544Z,36.00
2018-10-21T05:50:15.602Z,40.00
2018-10-21T05:51:15.655Z,48.00
2018-10-21T05:52:15.770Z,52.00
2018-10-21T05:53:15.766Z,64.00
2018-10-21T05:54:15.821Z,76.00
2018-10-21T05:55:15.877Z,92.00
2018-10-21T05:56:15.933Z,100.00
2018-10-21T05:57:15.988Z,116.00
2018-10-21T05:58:16.067Z,128.00
2018-10-21T05:59:16.097Z,144.00
2018-10-21T06:00:16.156Z,160.00
2018-10-21T06:01:16.209Z,176.00
2018-10-21T06:02:16.263Z,192.00
2018-10-21T06:03:16.319Z,204.00
2018-10-21T06:04:16.458Z,216.00
2018-10-21T06:05:16.431Z,220.00
2018-10-21T06:06:16.486Z,236.00
2018-10-21T06:07:16.540Z,264.00
2018-10-21T06:08:16.599Z,280.00
2018-10-21T06:09:16.651Z,296.00
2018-10-21T06:10:16.795Z,328.00
2018-10-21T06:11:16.762Z,352.00
2018-10-21T06:12:16.817Z,372.00
2018-10-21T06:13:16.875Z,396.00
2018-10-21T06:14:16.927Z,416.00
2018-10-21T06:15:16.985Z,436.00
2018-10-21T06:16:17.121Z,468.00
2018-10-21T06:17:17.094Z,504.00
2018-10-21T06:18:17.148Z,536.00
2018-10-21T06:19:17.203Z,572.00
2018-10-21T06:20:17.259Z,604.00
2018-10-21T06:21:17.314Z,628.00
2018-10-21T06:22:17.431Z,668.00
2018-10-21T06:23:17.424Z,688.00
2018-10-21T06:24:17.496Z,708.00
2018-10-21T06:25:17.539Z,728.00
2018-10-21T06:26:17.590Z,752.00
2018-10-21T06:27:17.644Z,800.00
2018-10-21T06:28:17.703Z,848.00
2018-10-21T06:29:17.757Z,876.00
2018-10-21T06:30:17.811Z,896.00
2018-10-21T06:31:17.867Z,924.00
2018-10-21T06:32:17.924Z,952.00
2018-10-21T06:33:18.048Z,980.00
2018-10-21T06:34:18.032Z,1020.00
2018-10-21T06:35:18.088Z,1056.00
2018-10-21T06:36:18.143Z,1072.00
2018-10-21T06:37:18.199Z,1072.00
2018-10-21T06:38:18.255Z,1088.00
2018-10-21T06:39:18.310Z,1120.00
2018-10-21T06:40:18.369Z,1184.00
2018-10-21T06:41:18.420Z,1248.00
2018-10-21T06:42:18.474Z,1296.00
2018-10-21T06:43:18.530Z,1344.00
2018-10-21T06:44:18.590Z,1380.00
2018-10-21T06:45:19.173Z,1396.00
2018-10-21T06:46:18.699Z,1440.00
2018-10-21T06:47:18.751Z,1500.00
2018-10-21T06:48:18.843Z,1560.00
2018-10-21T06:49:18.863Z,1600.00
2018-10-21T06:50:18.920Z,1632.00
2018-10-21T06:51:18.973Z,1632.00
2018-10-21T06:52:19.028Z,1644.00
2018-10-21T06:53:19.086Z,1684.00
2018-10-21T06:54:19.139Z,1716.00
2018-10-21T06:55:19.194Z,1780.00
2018-10-21T06:56:19.283Z,1828.00
2018-10-21T06:57:19.487Z,1848.00
2018-10-21T06:58:19.369Z,1892.00
2018-10-21T06:59:19.419Z,1952.00
2018-10-21T07:00:19.474Z,2032.00
2018-10-21T07:01:19.528Z,2088.00
2018-10-21T07:02:19.583Z,2196.00
2018-10-21T07:03:19.639Z,2296.00
2018-10-21T07:04:19.777Z,2324.00
2018-10-21T07:05:19.751Z,2328.00
2018-10-21T07:06:19.805Z,2356.00
2018-10-21T07:07:19.861Z,2396.00
2018-10-21T07:08:19.968Z,2452.00
2018-10-21T07:09:19.973Z,2528.00
2018-10-21T07:10:20.028Z,2568.00
2018-10-21T07:11:20.084Z,2580.00
2018-10-21T07:12:20.139Z,2692.00
2018-10-21T07:13:20.196Z,2860.00
2018-10-21T07:14:20.249Z,3012.00
2018-10-21T07:15:20.462Z,3116.00
2018-10-21T07:16:20.490Z,3156.00
2018-10-21T07:17:20.418Z,3140.00
2018-10-21T07:18:20.473Z,3136.00
2018-10-21T07:19:20.528Z,3164.00
2018-10-21T07:20:20.586Z,3240.00
2018-10-21T07:21:20.640Z,3272.00
2018-10-21T07:22:20.698Z,3280.00
2018-10-21T07:23:20.753Z,3352.00
2018-10-21T07:24:20.808Z,3548.00
2018-10-21T07:25:20.865Z,3844.00
2018-10-21T07:26:20.919Z,4084.00
2018-10-21T07:27:20.976Z,4140.00
2018-10-21T07:28:21.135Z,4096.00
2018-10-21T07:29:21.094Z,4084.00
2018-10-21T07:30:21.142Z,4112.00
2018-10-21T07:31:21.198Z,4212.00
2018-10-21T07:32:21.258Z,4212.00
2018-10-21T07:33:21.311Z,4124.00
2018-10-21T07:34:21.366Z,4100.00
2018-10-21T07:35:21.422Z,3996.00
2018-10-21T07:36:21.536Z,3900.00
2018-10-21T07:37:21.535Z,3952.00
2018-10-21T07:38:21.590Z,4092.00
2018-10-21T07:39:21.646Z,4284.00
2018-10-21T07:40:21.710Z,4360.00
2018-10-21T07:41:21.759Z,4480.00
2018-10-21T07:42:21.816Z,4668.00
2018-10-21T07:43:21.870Z,4800.00
2018-10-21T07:44:21.927Z,4700.00
2018-10-21T07:45:22.011Z,4648.00
2018-10-21T07:46:22.048Z,4880.00
2018-10-21T07:47:22.096Z,4972.00
2018-10-21T07:48:22.163Z,4852.00
2018-10-21T07:49:22.213Z,4816.00
2018-10-21T07:50:22.265Z,4956.00
2018-10-21T07:51:22.322Z,4984.00
2018-10-21T07:52:22.379Z,5048.00
2018-10-21T07:53:22.436Z,5256.00
2018-10-21T07:54:22.492Z,5340.00
2018-10-21T07:55:22.641Z,5436.00
2018-10-21T07:56:22.606Z,5500.00
2018-10-21T07:57:22.670Z,5420.00
2018-10-21T07:58:22.719Z,5392.00
2018-10-21T07:59:22.776Z,5468.00
2018-10-21T08:00:22.833Z,5504.00
2018-10-21T08:01:22.949Z,5416.00
2018-10-21T08:02:22.947Z,5376.00
2018-10-21T08:03:23.003Z,5224.00
2018-10-21T08:04:23.064Z,5128.00
2018-10-21T08:05:23.118Z,5124.00
2018-10-21T08:06:23.173Z,5108.00
2018-10-21T08:07:23.231Z,5180.00
2018-10-21T08:08:23.288Z,5216.00
2018-10-21T08:09:23.345Z,5420.00
2018-10-21T08:10:23.401Z,5492.00
2018-10-21T08:11:23.457Z,5372.00
2018-10-21T08:12:23.514Z,5232.00
2018-10-21T08:13:23.574Z,5240.00
2018-10-21T08:14:23.630Z,5440.00
2018-10-21T08:15:23.687Z,5660.00
2018-10-21T08:16:23.743Z,5996.00
2018-10-21T08:17:23.803Z,6276.00
2018-10-21T08:18:23.892Z,6512.00
2018-10-21T08:19:23.915Z,6660.00
2018-10-21T08:20:23.971Z,6916.00
2018-10-21T08:21:24.032Z,7004.00
2018-10-21T08:22:24.088Z,7228.00
2018-10-21T08:23:24.162Z,7472.00
2018-10-21T08:24:24.203Z,7732.00
2018-10-21T08:25:24.259Z,8044.00
2018-10-21T08:26:24.315Z,8616.00
2018-10-21T08:27:25.189Z,8720.00
2018-10-21T08:28:24.429Z,8648.00
2018-10-21T08:29:24.488Z,8564.00
2018-10-21T08:30:24.544Z,8608.00
2018-10-21T08:31:24.601Z,8924.00
2018-10-21T08:32:24.659Z,9156.00
2018-10-21T08:33:24.716Z,9468.00
2018-10-21T08:34:24.775Z,9720.00
2018-10-21T08:35:24.831Z,9748.00
2018-10-21T08:36:24.889Z,9676.00
2018-10-21T08:37:24.946Z,9472.00
2018-10-21T08:38:25.002Z,9256.00
2018-10-21T08:39:25.061Z,9064.00
2018-10-21T08:40:25.118Z,8836.00
2018-10-21T08:41:25.175Z,8688.00
2018-10-21T08:42:25.240Z,8724.00
2018-10-21T08:43:25.290Z,8900.00
2018-10-21T08:44:25.347Z,8532.00
2018-10-21T08:45:26.028Z,8396.00
2018-10-21T08:46:25.506Z,8308.00
2018-10-21T08:47:25.519Z,8196.00
2018-10-21T08:48:25.579Z,8332.00
2018-10-21T08:49:25.666Z,8312.00
2018-10-21T08:50:25.694Z,8328.00
2018-10-21T08:51:25.751Z,8484.00
2018-10-21T08:52:25.809Z,8628.00
2018-10-21T08:53:25.889Z,8664.00
2018-10-21T08:54:25.924Z,9132.00
2018-10-21T08:55:25.982Z,9512.00
2018-10-21T08:56:26.040Z,9484.00
2018-10-21T08:57:26.098Z,9416.00
2018-10-21T08:58:26.155Z,9776.00
2018-10-21T08:59:26.211Z,10088.00
2018-10-21T09:00:26.272Z,10136.00
2018-10-21T09:01:26.330Z,10280.00
2018-10-21T09:02:26.427Z,10112.00
2018-10-21T09:03:26.444Z,9876.00
2018-10-21T09:04:26.502Z,9484.00
2018-10-21T09:05:26.811Z,8940.00
2018-10-21T09:06:26.620Z,8756.00
2018-10-21T09:07:26.678Z,8876.00
2018-10-21T09:08:26.735Z,8900.00
2018-10-21T09:09:26.793Z,8988.00
2018-10-21T09:10:26.940Z,8732.00
2018-10-21T09:11:26.908Z,7760.00
2018-10-21T09:12:26.978Z,7820.00
2018-10-21T09:13:27.024Z,7164.00
2018-10-21T09:14:27.084Z,6536.00
2018-10-21T09:15:27.235Z,6388.00
2018-10-21T09:16:27.210Z,6148.00
2018-10-21T09:17:27.260Z,5796.00
2018-10-21T09:18:27.314Z,5352.00
2018-10-21T09:19:27.373Z,5060.00
2018-10-21T09:20:27.431Z,5120.00
2018-10-21T09:21:27.488Z,4944.00
2018-10-21T09:22:27.546Z,4700.00
2018-10-21T09:23:27.604Z,4536.00
2018-10-21T09:24:27.662Z,4440.00
2018-10-21T09:25:27.720Z,4408.00
2018-10-21T09:26:27.777Z,4392.00
2018-10-21T09:27:27.835Z,4388.00
2018-10-21T09:28:27.893Z,4380.00
2018-10-21T09:29:27.952Z,4368.00
2018-10-21T09:30:28.026Z,4368.00
2018-10-21T09:31:28.067Z,4376.00
2018-10-21T09:32:28.124Z,4364.00
2018-10-21T09:33:28.250Z,4340.00
2018-10-21T09:34:28.241Z,4336.00
2018-10-21T09:35:28.297Z,4340.00
2018-10-21T09:36:28.355Z,4344.00
2018-10-21T09:37:28.413Z,4324.00
2018-10-21T09:38:28.470Z,4332.00
2018-10-21T09:39:28.528Z,4328.00
2018-10-21T09:40:28.586Z,4328.00
2018-10-21T09:41:28.649Z,4308.00
2018-10-21T09:42:28.701Z,4288.00
2018-10-21T09:43:28.759Z,4276.00
2018-10-21T09:44:28.816Z,4264.00
2018-10-21T09:45:28.875Z,4272.00
2018-10-21T09:46:28.933Z,4280.00
2018-10-21T09:47:28.990Z,4280.00
2018-10-21T09:48:29.048Z,4276.00
2018-10-21T09:49:29.106Z,4292.00
2018-10-21T09:50:29.163Z,4292.00
2018-10-21T09:51:29.221Z,4304.00
2018-10-21T09:52:29.279Z,4312.00
2018-10-21T09:53:29.336Z,4320.00
2018-10-21T09:54:29.393Z,4324.00
2018-10-21T09:55:29.454Z,4320.00
2018-10-21T09:56:29.511Z,4324.00
2018-10-21T09:57:29.569Z,4336.00
2018-10-21T09:58:29.706Z,4344.00
2018-10-21T09:59:29.684Z,4352.00
2018-10-21T10:00:29.750Z,4348.00
2018-10-21T10:01:29.800Z,4348.00
2018-10-21T10:02:29.856Z,4348.00
2018-10-21T10:03:29.915Z,4356.00
2018-10-21T10:04:30.107Z,4356.00
2018-10-21T10:05:30.032Z,4364.00
2018-10-21T10:06:30.090Z,4380.00
2018-10-21T10:07:30.148Z,4380.00
2018-10-21T10:08:30.204Z,4380.00
2018-10-21T10:09:30.267Z,4380.00
2018-10-21T10:10:30.321Z,4400.00
2018-10-21T10:11:30.379Z,4404.00
2018-10-21T10:12:30.437Z,4388.00
2018-10-21T10:13:30.496Z,4380.00
2018-10-21T10:14:30.554Z,4388.00
2018-10-21T10:15:30.617Z,4396.00
2018-10-21T10:16:30.685Z,4396.00
2018-10-21T10:17:30.792Z,4412.00
2018-10-21T10:18:30.787Z,4416.00
2018-10-21T10:19:30.845Z,4428.00
2018-10-21T10:20:30.903Z,4436.00
2018-10-21T10:21:30.963Z,4448.00
2018-10-21T10:22:31.019Z,4460.00
2018-10-21T10:23:31.232Z,4452.00
2018-10-21T10:24:31.137Z,4460.00
2018-10-21T10:25:31.195Z,4472.00
2018-10-21T10:26:31.252Z,4472.00
2018-10-21T10:27:31.310Z,4464.00
2018-10-21T10:28:31.677Z,4464.00
2018-10-21T10:29:31.429Z,4460.00
2018-10-21T10:30:31.593Z,4464.00
2018-10-21T10:31:31.545Z,4472.00
2018-10-21T10:32:31.603Z,4488.00
2018-10-21T10:33:31.663Z,4512.00
2018-10-21T10:34:31.722Z,4536.00
2018-10-21T10:35:31.781Z,4564.00
2018-10-21T10:36:31.838Z,4572.00
2018-10-21T10:37:31.898Z,4588.00
2018-10-21T10:38:31.955Z,4604.00
2018-10-21T10:39:32.014Z,4624.00
2018-10-21T10:40:32.074Z,4648.00
2018-10-21T10:41:32.163Z,4676.00
2018-10-21T10:42:32.192Z,4700.00
2018-10-21T10:43:32.251Z,4716.00
2018-10-21T10:44:32.312Z,4732.00
2018-10-21T10:45:32.369Z,4764.00
2018-10-21T10:46:32.429Z,4764.00
2018-10-21T10:47:32.486Z,4772.00
2018-10-21T10:48:32.544Z,4800.00
2018-10-21T10:49:32.604Z,4820.00
2018-10-21T10:50:32.662Z,4844.00
2018-10-21T10:51:32.722Z,4868.00
2018-10-21T10:52:32.781Z,4888.00
2018-10-21T10:53:32.840Z,4904.00
2018-10-21T10:54:32.899Z,4924.00
2018-10-21T10:55:32.960Z,4952.00
2018-10-21T10:56:33.018Z,4992.00
2018-10-21T10:57:33.077Z,5072.00
2018-10-21T10:58:33.135Z,5192.00
2018-10-21T10:59:33.264Z,5368.00
2018-10-21T11:00:33.258Z,5612.00
2018-10-21T11:01:33.314Z,6112.00
2018-10-21T11:02:33.373Z,7256.00
2018-10-21T11:03:33.435Z,12716.00
2018-10-21T11:04:33.492Z,19872.00
2018-10-21T11:05:33.552Z,22624.00
2018-10-21T11:06:33.762Z,23008.00
2018-10-21T11:07:33.672Z,22848.00
2018-10-21T11:08:33.731Z,22816.00
2018-10-21T11:09:33.793Z,23008.00
2018-10-21T11:10:33.854Z,22944.00
2018-10-21T11:11:33.913Z,22976.00
2018-10-21T11:12:33.975Z,22720.00
2018-10-21T11:13:34.036Z,22720.00
2018-10-21T11:14:34.108Z,22528.00
2018-10-21T11:15:34.159Z,22304.00
2018-10-21T11:16:34.221Z,22208.00
2018-10-21T11:17:34.283Z,21824.00
2018-10-21T11:18:34.345Z,21856.00
2018-10-21T11:19:34.407Z,21760.00
2018-10-21T11:20:34.489Z,21568.00
2018-10-21T11:21:34.536Z,21440.00
2018-10-21T11:22:34.606Z,21184.00
2018-10-21T11:23:34.731Z,21152.00
2018-10-21T11:24:34.741Z,20896.00
2018-10-21T11:25:34.787Z,20736.00
2018-10-21T11:26:34.848Z,20640.00
2018-10-21T11:27:34.914Z,20448.00
2018-10-21T11:28:34.977Z,20224.00
2018-10-21T11:29:35.043Z,20096.00
2018-10-21T11:30:35.109Z,20032.00
2018-10-21T11:31:35.171Z,19648.00
2018-10-21T11:32:35.236Z,19648.00
2018-10-21T11:33:35.301Z,19520.00
2018-10-21T11:34:35.362Z,19264.00
2018-10-21T11:35:35.431Z,19200.00
2018-10-21T11:36:35.525Z,19072.00
2018-10-21T11:37:35.639Z,18848.00
2018-10-21T11:38:35.620Z,18720.00
2018-10-21T11:39:35.688Z,18560.00
2018-10-21T11:40:35.750Z,18432.00
2018-10-21T11:41:35.815Z,18336.00
2018-10-21T11:42:35.879Z,18336.00
2018-10-21T11:43:35.944Z,18240.00
2018-10-21T11:44:36.009Z,18240.00
2018-10-21T11:45:36.155Z,18144.00
2018-10-21T11:46:36.287Z,18080.00
2018-10-21T11:47:36.207Z,18048.00
2018-10-21T11:48:36.272Z,18080.00
2018-10-21T11:49:36.335Z,18112.00
2018-10-21T11:50:36.400Z,18240.00
2018-10-21T11:51:36.480Z,18336.00
2018-10-21T11:52:36.598Z,18528.00
2018-10-21T11:53:36.597Z,18816.00
2018-10-21T11:54:36.661Z,19136.00
2018-10-21T11:55:36.728Z,19488.00
2018-10-21T11:56:36.799Z,19968.00
2018-10-21T11:57:36.859Z,20544.00
2018-10-21T11:58:36.927Z,21152.00
2018-10-21T11:59:36.988Z,22016.00
2018-10-21T12:00:37.054Z,22720.00
2018-10-21T12:01:37.121Z,23776.00
2018-10-21T12:02:37.191Z,24704.00
2018-10-21T12:03:37.253Z,25600.00
2018-10-21T12:04:37.318Z,26560.00
2018-10-21T12:05:37.385Z,27168.00
2018-10-21T12:06:37.454Z,27744.00
2018-10-21T12:07:37.516Z,28832.00
2018-10-21T12:08:37.583Z,29152.00
2018-10-21T12:09:37.649Z,29504.00
2018-10-21T12:10:37.714Z,29792.00
2018-10-21T12:11:37.784Z,29856.00
2018-10-21T12:12:37.848Z,29952.00
2018-10-21T12:13:38.254Z,29888.00
2018-10-21T12:14:37.979Z,29824.00
2018-10-21T12:15:38.355Z,29600.00
2018-10-21T12:16:38.112Z,29600.00
2018-10-21T12:17:38.203Z,29536.00
2018-10-21T12:18:38.245Z,29504.00
2018-10-21T12:19:38.353Z,29504.00
2018-10-21T12:20:38.377Z,29472.00
2018-10-21T12:21:38.444Z,29312.00
2018-10-21T12:22:38.516Z,29216.00
2018-10-21T12:23:38.577Z,29088.00
2018-10-21T12:24:38.647Z,28928.00
2018-10-21T12:25:38.768Z,29088.00
2018-10-21T12:26:38.777Z,28704.00
2018-10-21T12:27:38.842Z,28320.00
2018-10-21T12:28:38.909Z,27936.00
2018-10-21T12:29:38.974Z,27392.00
2018-10-21T12:30:39.041Z,26784.00
2018-10-21T12:31:39.109Z,26400.00
2018-10-21T12:32:39.174Z,25504.00
2018-10-21T12:33:39.241Z,24864.00
2018-10-21T12:34:39.307Z,24064.00
2018-10-21T12:35:39.373Z,23360.00
2018-10-21T12:36:39.440Z,22720.00